Time;durP1;ratioP1;P1;durP2;ratioP2;P2;SDS_P1;SDS_P2;PMS_P1;PMS_P2;Temp;Humidity;BMP_temperature;BMP_pressure;BME280_temperature;BME280_humidity;BME280_pressure;Samples;Min_cycle;Max_cycle;Signal;HPM_P1;HPM_P2
2021/11/25 00:02:08;;;;;;;12.10;2.80;;;4.30;88.80;;;;;;4823952;29;20062;-70
2021/11/25 00:04:36;;;;;;;15.30;2.70;;;4.30;88.80;;;;;;4824866;29;20050;-71
2021/11/25 00:07:04;;;;;;;18.60;2.70;;;4.20;88.90;;;;;;4808650;29;20417;-71
2021/11/25 00:09:32;;;;;;;11.93;2.65;;;4.20;89.00;;;;;;4838498;29;20058;-70
2021/11/25 00:11:59;;;;;;;9.73;2.53;;;4.10;89.20;;;;;;4824593;29;20401;-71
2021/11/25 00:14:27;;;;;;;13.10;2.13;;;4.00;89.20;;;;;;4809921;29;20062;-71
2021/11/25 00:16:54;;;;;;;9.13;2.20;;;3.90;89.30;;;;;;4824375;29;20058;-71
2021/11/25 00:19:22;;;;;;;10.60;2.50;;;3.90;89.50;;;;;;4824501;29;20497;-71
2021/11/25 00:21:49;;;;;;;12.25;2.78;;;3.80;89.70;;;;;;4824203;29;20080;-71
2021/11/25 00:24:17;;;;;;;12.65;3.08;;;3.70;89.80;;;;;;4823183;29;20061;-71
2021/11/25 00:26:45;;;;;;;14.23;2.50;;;3.70;89.90;;;;;;4792474;29;20505;-71
2021/11/25 00:29:12;;;;;;;17.08;3.00;;;3.60;90.00;;;;;;4822540;29;20051;-71
2021/11/25 00:31:40;;;;;;;10.90;2.05;;;3.50;90.10;;;;;;4819166;29;20057;-71
2021/11/25 00:34:08;;;;;;;12.27;2.50;;;3.50;90.30;;;;;;4806581;29;20050;-71
2021/11/25 00:36:39;;;;;;;10.85;2.78;;;3.50;90.40;;;;;;4820783;29;20409;-71
2021/11/25 00:39:07;;;;;;;13.60;2.63;;;3.40;90.50;;;;;;4821324;29;20050;-71
2021/11/25 00:41:35;;;;;;;19.40;2.70;;;3.40;90.40;;;;;;4822301;29;20059;-71
2021/11/25 00:44:03;;;;;;;14.32;2.97;;;3.40;90.50;;;;;;4814957;29;20042;-71
2021/11/25 00:46:30;;;;;;;10.25;2.60;;;3.40;90.50;;;;;;4822630;29;20054;-71
2021/11/25 00:48:58;;;;;;;13.05;2.85;;;3.30;90.50;;;;;;4831605;29;20084;-71
2021/11/25 00:51:26;;;;;;;19.38;2.83;;;3.30;90.60;;;;;;4822642;29;20130;-70
2021/11/25 00:53:53;;;;;;;14.68;3.00;;;3.30;90.60;;;;;;4821387;29;20057;-71
2021/11/25 00:56:21;;;;;;;10.73;2.17;;;3.20;90.80;;;;;;4822559;29;20069;-71
2021/11/25 00:58:48;;;;;;;13.60;2.25;;;3.20;90.90;;;;;;4811456;29;20054;-70
2021/11/25 01:01:16;;;;;;;14.00;2.70;;;3.20;90.90;;;;;;4821566;29;20057;-70
2021/11/25 01:03:44;;;;;;;14.25;2.53;;;3.10;91.00;;;;;;4791731;29;20058;-70
2021/11/25 01:06:11;;;;;;;21.40;3.47;;;3.10;90.90;;;;;;4822513;29;20745;-71
2021/11/25 01:08:39;;;;;;;12.65;2.80;;;3.00;90.90;;;;;;4819467;29;20042;-71
2021/11/25 01:11:07;;;;;;;12.63;2.63;;;3.00;91.00;;;;;;4822830;29;20054;-71
2021/11/25 01:13:35;;;;;;;9.55;2.40;;;3.00;91.00;;;;;;4820248;29;20055;-71
2021/11/25 01:16:03;;;;;;;14.10;2.70;;;3.00;91.20;;;;;;4816599;29;20063;-71
2021/11/25 01:18:32;;;;;;;14.27;2.50;;;2.90;91.10;;;;;;4819892;29;20063;-71
2021/11/25 01:21:00;;;;;;;8.52;2.75;;;2.90;90.90;;;;;;4820096;29;20053;-70
2021/11/25 01:23:29;;;;;;;8.98;2.42;;;2.90;91.00;;;;;;4821988;29;20065;-71
2021/11/25 01:25:58;;;;;;;12.73;3.08;;;2.80;91.00;;;;;;4820162;29;20042;-70
2021/11/25 01:28:27;;;;;;;10.93;3.00;;;2.80;91.00;;;;;;4822482;29;20050;-71
2021/11/25 01:31:00;;;;;;;14.45;3.03;;;2.70;91.10;;;;;;4820057;29;20062;-70
2021/11/25 01:33:32;;;;;;;16.42;3.10;;;2.70;91.10;;;;;;4822410;29;20053;-70
2021/11/25 01:36:01;;;;;;;16.60;2.80;;;2.60;91.20;;;;;;4804573;29;20050;-71
2021/11/25 01:38:29;;;;;;;10.85;2.50;;;2.60;91.30;;;;;;4821739;29;20057;-70
2021/11/25 01:40:57;;;;;;;17.52;3.30;;;2.50;91.30;;;;;;4820418;29;20054;-70
2021/11/25 01:43:26;;;;;;;16.42;3.38;;;2.50;91.30;;;;;;4804449;29;20070;-70
2021/11/25 01:45:56;;;;;;;11.55;1.98;;;2.50;91.40;;;;;;4824651;29;20560;-71
2021/11/25 01:48:24;;;;;;;8.52;2.10;;;2.50;91.40;;;;;;4821338;29;20073;-70
2021/11/25 01:50:52;;;;;;;11.75;2.40;;;2.50;91.50;;;;;;4819309;29;20046;-71
2021/11/25 01:53:20;;;;;;;17.95;2.97;;;2.50;91.40;;;;;;4819088;29;20429;-71
2021/11/25 01:55:48;;;;;;;14.68;2.60;;;2.50;91.40;;;;;;4821729;29;20050;-71
2021/11/25 01:58:16;;;;;;;15.50;3.28;;;2.50;91.40;;;;;;4821064;29;20061;-71
2021/11/25 02:00:51;;;;;;;13.73;2.55;;;2.50;91.40;;;;;;4815605;29;20516;-71
2021/11/25 02:05:46;;;;;;;12.07;3.03;;;2.50;91.40;;;;;;4841331;23;20057;-72
2021/11/25 02:12:47;;;;;;;13.32;3.25;;;2.50;91.40;;;;;;4842255;29;20383;-71
2021/11/25 02:15:15;;;;;;;16.70;3.20;;;2.40;91.40;;;;;;4842565;29;20440;-71
2021/11/25 02:17:44;;;;;;;17.30;3.80;;;2.30;91.30;;;;;;4841981;29;20053;-71
2021/11/25 02:20:13;;;;;;;17.45;3.67;;;2.30;91.30;;;;;;4842343;29;20061;-71
2021/11/25 02:22:43;;;;;;;15.23;3.72;;;2.30;91.50;;;;;;4841633;29;20399;-71
2021/11/25 02:25:13;;;;;;;22.00;4.07;;;2.20;91.50;;;;;;4825891;29;20046;-70
2021/11/25 02:27:43;;;;;;;15.95;3.92;;;2.20;91.80;;;;;;4841704;29;20054;-71
2021/11/25 02:30:12;;;;;;;15.88;3.95;;;2.20;91.90;;;;;;4842071;29;20065;-71
2021/11/25 02:32:44;;;;;;;15.95;4.38;;;2.10;91.70;;;;;;4841328;29;20045;-72
2021/11/25 02:35:16;;;;;;;13.57;4.10;;;2.10;91.80;;;;;;4842215;29;20484;-72
2021/11/25 02:37:43;;;;;;;15.90;3.97;;;2.00;91.80;;;;;;4841858;29;20058;-72
2021/11/25 02:40:22;;;;;;;20.08;4.63;;;2.00;92.00;;;;;;4841872;29;20060;-71
2021/11/25 02:42:52;;;;;;;15.18;3.83;;;2.00;92.10;;;;;;4842284;29;20492;-71
2021/11/25 02:45:21;;;;;;;15.85;3.95;;;2.00;92.20;;;;;;4842639;29;20400;-71
2021/11/25 02:47:49;;;;;;;17.52;3.95;;;2.00;92.20;;;;;;4842031;29;20061;-71
2021/11/25 02:50:19;;;;;;;20.58;4.32;;;2.00;92.20;;;;;;4841392;29;20054;-71
2021/11/25 02:52:47;;;;;;;19.52;4.40;;;2.00;92.10;;;;;;4840195;29;20444;-71
2021/11/25 02:55:17;;;;;;;14.10;3.60;;;1.90;92.20;;;;;;4843720;29;20475;-71
2021/11/25 02:57:45;;;;;;;12.20;4.35;;;1.90;92.00;;;;;;4844851;29;20061;-71
2021/11/25 03:00:21;;;;;;;19.20;4.15;;;1.80;91.90;;;;;;4844900;29;20050;-71
2021/11/25 03:03:02;;;;;;;19.15;4.55;;;1.80;92.20;;;;;;4844965;29;20489;-71
2021/11/25 03:05:30;;;;;;;23.70;4.53;;;1.80;92.40;;;;;;4844871;29;20085;-72
2021/11/25 03:08:05;;;;;;;15.02;3.75;;;1.80;92.50;;;;;;4845186;29;20069;-71
2021/11/25 03:10:38;;;;;;;20.55;3.75;;;1.80;92.50;;;;;;4844364;29;20372;-71
2021/11/25 03:13:08;;;;;;;14.98;4.40;;;1.80;92.60;;;;;;4844434;29;20057;-71
2021/11/25 03:15:37;;;;;;;17.50;3.15;;;1.80;92.60;;;;;;4844703;29;20061;-71
2021/11/25 03:18:06;;;;;;;16.48;3.95;;;1.80;92.60;;;;;;4843985;29;20057;-71
2021/11/25 03:20:36;;;;;;;16.23;3.80;;;1.80;92.70;;;;;;4844757;29;20112;-71
2021/11/25 03:23:06;;;;;;;16.67;3.67;;;1.80;92.70;;;;;;4843950;29;20058;-71
2021/11/25 03:25:34;;;;;;;16.27;3.40;;;1.90;92.60;;;;;;4844634;29;20046;-71
2021/11/25 03:28:02;;;;;;;18.92;3.90;;;1.90;92.60;;;;;;4844498;29;20412;-71
2021/11/25 03:30:31;;;;;;;13.82;2.80;;;1.90;92.40;;;;;;4844451;29;20050;-71
2021/11/25 03:32:58;;;;;;;13.93;2.97;;;1.80;92.50;;;;;;4844337;29;20072;-71
2021/11/25 03:35:26;;;;;;;19.55;3.08;;;1.90;92.60;;;;;;4843420;29;20065;-71
2021/11/25 03:37:53;;;;;;;14.75;3.00;;;1.90;92.60;;;;;;4844640;29;20078;-71
2021/11/25 03:40:23;;;;;;;15.75;2.70;;;1.90;92.50;;;;;;4844132;29;20407;-71
2021/11/25 03:42:51;;;;;;;19.60;3.05;;;2.00;92.50;;;;;;4828200;29;20062;-71
2021/11/25 03:45:19;;;;;;;19.00;2.58;;;2.00;92.30;;;;;;4844387;29;20046;-71
2021/11/25 03:47:47;;;;;;;11.57;2.15;;;2.00;92.20;;;;;;4844013;29;20054;-71
2021/11/25 03:50:15;;;;;;;15.43;2.78;;;2.00;92.10;;;;;;4827689;29;20054;-71
2021/11/25 03:52:43;;;;;;;14.20;2.90;;;1.90;92.10;;;;;;4843203;29;20372;-71
2021/11/25 03:55:13;;;;;;;20.27;2.95;;;1.90;92.10;;;;;;4844040;29;20519;-71
2021/11/25 03:57:41;;;;;;;13.77;2.80;;;1.80;92.00;;;;;;4843917;29;20069;-71
2021/11/25 04:00:13;;;;;;;22.17;3.20;;;1.80;91.80;;;;;;4843948;29;20408;-71
2021/11/25 04:02:41;;;;;;;23.10;2.63;;;1.70;92.00;;;;;;4843862;29;20447;-71
2021/11/25 04:05:10;;;;;;;23.95;3.40;;;1.60;92.10;;;;;;4843730;29;20480;-71
2021/11/25 04:07:38;;;;;;;21.60;3.85;;;1.50;92.20;;;;;;4844287;29;20484;-71
2021/11/25 04:10:08;;;;;;;14.40;3.65;;;1.50;92.20;;;;;;4843755;29;20065;-71
2021/11/25 04:17:08;;;;;;;15.48;3.33;;;1.30;92.50;;;;;;4843659;29;20045;-71
2021/11/25 04:19:35;;;;;;;11.20;3.28;;;1.30;92.50;;;;;;4843660;29;20050;-71
2021/11/25 04:22:03;;;;;;;12.80;3.55;;;1.20;92.60;;;;;;4843033;29;20057;-71
2021/11/25 04:24:31;;;;;;;10.25;3.30;;;1.20;92.40;;;;;;4827252;29;20064;-71
2021/11/25 04:37:21;;;;;;;15.15;3.58;;;0.80;92.40;;;;;;4843368;29;20058;-71
2021/11/25 04:39:48;;;;;;;17.50;4.05;;;0.70;92.60;;;;;;4842828;29;20057;-70
2021/11/25 04:42:17;;;;;;;16.27;3.72;;;0.70;92.50;;;;;;4843669;29;20053;-71
2021/11/25 04:44:45;;;;;;;18.38;3.35;;;0.60;93.20;;;;;;4842381;29;20058;-71
2021/11/25 04:47:13;;;;;;;10.18;2.55;;;0.80;93.80;;;;;;4843120;29;20061;-71
2021/11/25 04:49:40;;;;;;;11.55;2.55;;;0.80;93.80;;;;;;4843629;29;20485;-71
2021/11/25 04:52:08;;;;;;;11.85;2.42;;;0.90;94.00;;;;;;4843102;29;20503;-71
2021/11/25 04:54:36;;;;;;;22.33;2.67;;;1.00;93.80;;;;;;4843717;29;20042;-71
2021/11/25 04:57:05;;;;;;;11.50;2.38;;;1.10;93.60;;;;;;4842781;29;20050;-71
2021/11/25 04:59:32;;;;;;;12.15;2.45;;;1.10;93.50;;;;;;4843127;29;20046;-71
2021/11/25 05:06:36;;;;;;;10.10;2.30;;;1.20;93.40;;;;;;4842635;29;20046;-71
2021/11/25 05:09:04;;;;;;;10.45;2.15;;;1.30;93.20;;;;;;4842734;29;20045;-71
2021/11/25 05:11:32;;;;;;;18.52;2.83;;;1.30;93.10;;;;;;4842382;29;20072;-71
2021/11/25 05:13:59;;;;;;;15.88;2.40;;;1.30;93.00;;;;;;4843197;29;20515;-70
2021/11/25 05:16:27;;;;;;;16.23;2.13;;;1.40;92.90;;;;;;4842349;29;20412;-70
2021/11/25 05:18:55;;;;;;;12.35;2.47;;;1.40;92.80;;;;;;4842203;29;20061;-70
2021/11/25 05:21:23;;;;;;;12.02;2.20;;;1.30;92.80;;;;;;4842244;29;20062;-70
2021/11/25 05:23:51;;;;;;;15.23;2.53;;;1.30;92.80;;;;;;4826240;29;20053;-70
2021/11/25 05:26:19;;;;;;;11.77;2.03;;;1.30;92.80;;;;;;4842572;29;20046;-70
2021/11/25 05:28:47;;;;;;;8.32;2.00;;;1.30;92.80;;;;;;4841456;29;20073;-70
2021/11/25 05:31:14;;;;;;;14.35;2.83;;;1.30;92.70;;;;;;4842505;29;20377;-70
2021/11/25 05:33:42;;;;;;;19.10;2.63;;;1.30;92.80;;;;;;4842375;29;20053;-71
2021/11/25 05:36:09;;;;;;;10.60;2.55;;;1.30;92.80;;;;;;4826299;29;20057;-70
2021/11/25 05:38:37;;;;;;;13.75;2.72;;;1.30;92.80;;;;;;4843093;29;20054;-70
2021/11/25 05:41:05;;;;;;;11.88;2.83;;;1.30;92.60;;;;;;4842343;29;20050;-71
2021/11/25 05:43:32;;;;;;;10.20;2.47;;;1.30;92.60;;;;;;4841413;29;20395;-70
2021/11/25 05:46:00;;;;;;;14.38;2.67;;;1.30;92.60;;;;;;4840792;29;20046;-70
2021/11/25 05:48:28;;;;;;;11.18;2.58;;;1.30;92.60;;;;;;4842218;29;20054;-70
2021/11/25 05:50:56;;;;;;;16.13;2.00;;;1.30;92.60;;;;;;4842717;29;20502;-70
2021/11/25 05:53:24;;;;;;;11.75;2.70;;;1.20;92.60;;;;;;4842659;29;20063;-70
2021/11/25 05:55:52;;;;;;;8.85;2.60;;;1.20;92.70;;;;;;4842672;29;20476;-70
2021/11/25 05:58:20;;;;;;;16.42;2.58;;;1.20;92.80;;;;;;4840959;29;20054;-70
2021/11/25 06:00:48;;;;;;;18.70;2.70;;;1.20;92.70;;;;;;4842187;29;20042;-70
2021/11/25 06:03:17;;;;;;;15.45;2.83;;;1.20;92.70;;;;;;4842140;29;20152;-70
2021/11/25 06:05:44;;;;;;;9.95;3.00;;;1.20;92.60;;;;;;4841460;29;20062;-71
2021/11/25 06:08:12;;;;;;;12.32;2.60;;;1.10;92.40;;;;;;4842350;29;20380;-70
2021/11/25 06:10:40;;;;;;;9.82;3.00;;;1.00;92.30;;;;;;4842003;29;20180;-70
2021/11/25 06:13:07;;;;;;;13.02;3.28;;;0.90;92.50;;;;;;4842090;29;20373;-70
2021/11/25 06:15:34;;;;;;;11.57;2.90;;;0.80;92.60;;;;;;4842072;29;20054;-70
2021/11/25 06:18:02;;;;;;;16.45;3.13;;;0.80;92.70;;;;;;4841955;29;20072;-70
2021/11/25 06:20:29;;;;;;;9.40;2.92;;;0.80;92.80;;;;;;4840604;29;20050;-70
2021/11/25 06:22:57;;;;;;;17.83;3.15;;;0.70;92.90;;;;;;4825790;29;20066;-70
2021/11/25 06:25:26;;;;;;;18.13;3.10;;;0.80;93.10;;;;;;4841976;29;20487;-70
2021/11/25 06:27:54;;;;;;;14.77;3.17;;;0.80;93.00;;;;;;4842353;29;20073;-70
2021/11/25 06:30:21;;;;;;;7.03;2.45;;;0.80;93.20;;;;;;4844443;29;20485;-70
2021/11/25 06:32:50;;;;;;;15.32;3.08;;;0.70;93.10;;;;;;4845699;29;20053;-71
2021/11/25 06:35:20;;;;;;;9.70;2.50;;;0.80;93.30;;;;;;4845402;29;20058;-70
2021/11/25 06:37:49;;;;;;;5.93;1.98;;;0.80;93.30;;;;;;4845634;29;20061;-70
2021/11/25 06:40:22;;;;;;;14.10;2.35;;;0.80;93.40;;;;;;4844606;29;20384;-70
2021/11/25 06:42:49;;;;;;;10.25;2.22;;;0.80;93.40;;;;;;4845714;29;20061;-70
2021/11/25 06:45:17;;;;;;;9.27;2.10;;;1.00;93.40;;;;;;4828428;29;20058;-71
2021/11/25 06:47:47;;;;;;;13.38;2.50;;;1.00;93.30;;;;;;4845196;29;20054;-70
2021/11/25 06:50:17;;;;;;;12.45;2.20;;;1.00;93.10;;;;;;4845886;29;20061;-70
2021/11/25 06:52:45;;;;;;;9.52;2.20;;;1.00;93.20;;;;;;4843919;29;20054;-70
2021/11/25 06:55:14;;;;;;;14.80;3.08;;;1.10;93.10;;;;;;4845178;29;20046;-70
2021/11/25 06:57:47;;;;;;;8.75;2.20;;;1.10;93.00;;;;;;4814117;29;20061;-70
2021/11/25 07:00:17;;;;;;;8.90;2.10;;;1.00;93.00;;;;;;4844084;29;20057;-70
2021/11/25 07:02:44;;;;;;;14.15;2.20;;;1.00;93.20;;;;;;4844755;29;20068;-69
2021/11/25 07:05:12;;;;;;;15.23;2.90;;;1.10;93.10;;;;;;4845115;29;20487;-70
2021/11/25 07:07:40;;;;;;;11.68;2.65;;;1.10;93.10;;;;;;4845074;29;20053;-69
2021/11/25 07:10:08;;;;;;;9.00;2.92;;;1.00;93.00;;;;;;4828359;29;20061;-69
2021/11/25 07:12:39;;;;;;;13.98;3.28;;;1.00;93.00;;;;;;4844966;29;20046;-71
2021/11/25 07:15:09;;;;;;;14.07;2.90;;;1.00;92.90;;;;;;4845638;29;20050;-69
2021/11/25 07:17:37;;;;;;;13.57;3.13;;;1.00;92.80;;;;;;4844771;29;20061;-69
2021/11/25 07:20:06;;;;;;;9.38;2.53;;;0.90;92.90;;;;;;4828227;29;20058;-69
2021/11/25 07:22:33;;;;;;;15.05;3.50;;;0.90;93.00;;;;;;4843433;29;20057;-68
2021/11/25 07:25:02;;;;;;;16.80;3.67;;;0.90;93.00;;;;;;4845301;29;20468;-69
2021/11/25 07:27:29;;;;;;;10.80;2.65;;;0.80;93.00;;;;;;4828080;29;20076;-69
2021/11/25 07:29:57;;;;;;;9.02;3.55;;;0.80;92.80;;;;;;4845023;29;20054;-69
2021/11/25 07:32:25;;;;;;;15.25;3.40;;;0.70;92.80;;;;;;4843257;29;20057;-69
2021/11/25 07:34:53;;;;;;;19.00;3.70;;;0.70;93.00;;;;;;4845026;29;20053;-68
2021/11/25 07:37:21;;;;;;;11.05;3.20;;;0.70;93.20;;;;;;4844353;29;20504;-68
2021/11/25 07:39:48;;;;;;;11.73;3.70;;;0.70;93.20;;;;;;4842823;29;20061;-69
2021/11/25 07:42:16;;;;;;;11.85;3.80;;;0.60;93.00;;;;;;4844628;29;20061;-69
2021/11/25 07:44:44;;;;;;;13.15;4.05;;;0.50;93.10;;;;;;4842953;29;20535;-69
2021/11/25 07:47:11;;;;;;;16.55;3.83;;;0.50;93.20;;;;;;4828239;29;20054;-69
2021/11/25 07:49:41;;;;;;;13.13;3.72;;;0.40;93.20;;;;;;4843642;29;20057;-69
2021/11/25 07:52:13;;;;;;;10.23;3.40;;;0.50;93.20;;;;;;4843224;29;20049;-69
2021/11/25 07:54:41;;;;;;;13.02;3.83;;;0.40;93.30;;;;;;4843232;29;20507;-69
2021/11/25 07:57:08;;;;;;;10.82;3.08;;;0.40;93.50;;;;;;4844766;29;20063;-69
2021/11/25 07:59:36;;;;;;;18.00;3.40;;;0.40;93.50;;;;;;4842806;29;20050;-69
2021/11/25 08:02:04;;;;;;;14.02;3.03;;;0.40;93.60;;;;;;4843410;29;20053;-69
2021/11/25 08:04:32;;;;;;;13.45;2.60;;;0.40;93.60;;;;;;4827481;29;20072;-69
2021/11/25 08:06:59;;;;;;;13.57;2.63;;;0.50;93.70;;;;;;4843518;29;20058;-69
2021/11/25 08:09:27;;;;;;;8.95;2.80;;;0.50;93.80;;;;;;4843503;29;20061;-69
2021/11/25 08:11:54;;;;;;;15.70;2.78;;;0.60;93.80;;;;;;4844492;29;20062;-70
2021/11/25 08:14:22;;;;;;;16.30;2.90;;;0.70;93.70;;;;;;4812398;29;20054;-69
2021/11/25 08:16:51;;;;;;;8.82;2.60;;;0.80;93.60;;;;;;4844100;29;20057;-69
2021/11/25 08:19:19;;;;;;;14.35;2.78;;;0.80;93.40;;;;;;4843602;29;20050;-70
2021/11/25 08:21:47;;;;;;;9.88;2.10;;;0.80;93.20;;;;;;4843182;29;20054;-69
2021/11/25 08:24:14;;;;;;;12.43;2.35;;;0.90;93.10;;;;;;4844038;29;20069;-70
2021/11/25 08:26:42;;;;;;;11.65;2.42;;;0.90;93.00;;;;;;4827261;29;20061;-70
2021/11/25 08:29:09;;;;;;;13.95;3.42;;;1.00;92.90;;;;;;4842582;29;20054;-70
2021/11/25 08:36:11;;;;;;;8.32;3.13;;;1.00;92.80;;;;;;4843435;29;20038;-70
2021/11/25 08:38:39;;;;;;;13.77;2.80;;;1.00;92.70;;;;;;4826958;29;20061;-70
2021/11/25 08:41:07;;;;;;;10.88;2.85;;;1.00;92.60;;;;;;4842156;29;20046;-70
2021/11/25 08:43:35;;;;;;;7.93;2.80;;;1.00;92.60;;;;;;4843697;29;20050;-70
2021/11/25 08:46:03;;;;;;;8.65;2.85;;;1.00;92.50;;;;;;4826854;29;20053;-70
2021/11/25 08:48:31;;;;;;;15.52;3.17;;;1.00;92.60;;;;;;4842478;29;20058;-70
2021/11/25 08:50:58;;;;;;;7.65;2.60;;;1.00;92.60;;;;;;4842111;29;20354;-70
2021/11/25 08:53:26;;;;;;;11.60;2.58;;;1.00;92.70;;;;;;4841785;29;20070;-70
2021/11/25 08:55:54;;;;;;;12.38;2.83;;;1.10;92.70;;;;;;4842160;29;20133;-70
2021/11/25 09:02:57;;;;;;;9.18;2.13;;;1.30;92.30;;;;;;4842998;29;20053;-70
2021/11/25 09:05:24;;;;;;;11.73;2.50;;;1.30;92.10;;;;;;4842556;29;20412;-70
2021/11/25 09:07:52;;;;;;;14.35;2.67;;;1.40;91.90;;;;;;4842259;29;20493;-70
2021/11/25 09:10:20;;;;;;;4.60;1.75;;;1.40;91.70;;;;;;4843374;29;20392;-70
2021/11/25 09:12:48;;;;;;;14.82;2.47;;;1.50;91.60;;;;;;4826637;29;20057;-70
2021/11/25 09:15:24;;;;;;;9.10;2.40;;;1.50;91.50;;;;;;4843225;29;20064;-70
2021/11/25 09:17:52;;;;;;;11.18;2.70;;;1.60;91.40;;;;;;4842707;29;20054;-70
2021/11/25 09:20:31;;;;;;;10.73;2.78;;;1.60;91.40;;;;;;4843442;29;20066;-70
2021/11/25 09:23:01;;;;;;;11.32;3.33;;;1.60;91.30;;;;;;4827169;29;20090;-70
2021/11/25 09:25:29;;;;;;;12.02;2.50;;;1.60;91.30;;;;;;4826597;29;20054;-70
2021/11/25 09:27:58;;;;;;;12.98;2.70;;;1.60;91.20;;;;;;4843082;29;20491;-70
2021/11/25 09:30:28;;;;;;;10.15;2.30;;;1.70;91.20;;;;;;4842188;29;20058;-70
2021/11/25 09:32:56;;;;;;;10.40;2.65;;;1.70;91.10;;;;;;4842516;29;20046;-70
2021/11/25 09:35:23;;;;;;;12.20;2.67;;;1.70;91.10;;;;;;4842503;29;20074;-70
2021/11/25 09:37:51;;;;;;;14.85;3.00;;;1.80;91.10;;;;;;4840576;29;20496;-70
2021/11/25 09:40:22;;;;;;;10.77;2.38;;;1.80;91.00;;;;;;4842031;29;20066;-70
2021/11/25 09:43:00;;;;;;;8.50;2.13;;;1.80;91.00;;;;;;4841955;29;20058;-70
2021/11/25 09:45:29;;;;;;;12.65;2.60;;;1.90;90.80;;;;;;4842602;29;20372;-70
2021/11/25 09:48:00;;;;;;;9.90;2.75;;;2.00;90.60;;;;;;4827275;29;20058;-70
2021/11/25 09:50:30;;;;;;;10.88;2.40;;;2.00;90.50;;;;;;4843209;29;20050;-70
2021/11/25 09:53:02;;;;;;;10.75;2.80;;;2.10;90.30;;;;;;4826590;29;20400;-70
2021/11/25 09:55:31;;;;;;;10.55;2.80;;;2.20;90.10;;;;;;4841276;29;20046;-70
2021/11/25 09:57:59;;;;;;;17.05;3.30;;;2.20;89.90;;;;;;4842144;29;20046;-70
2021/11/25 10:00:28;;;;;;;14.38;3.55;;;2.30;89.80;;;;;;4841358;29;20065;-70
2021/11/25 10:02:56;;;;;;;11.98;3.00;;;2.30;89.80;;;;;;4842165;29;20408;-70
2021/11/25 10:05:24;;;;;;;8.95;2.70;;;2.30;89.80;;;;;;4845301;29;20086;-70
2021/11/25 10:07:52;;;;;;;24.73;3.55;;;2.40;89.80;;;;;;4845978;29;20050;-70
2021/11/25 10:10:28;;;;;;;12.05;2.53;;;2.40;89.80;;;;;;4845851;29;20053;-70
2021/11/25 10:13:11;;;;;;;13.30;3.13;;;2.50;89.70;;;;;;4845312;29;20054;-70
2021/11/25 10:15:40;;;;;;;12.25;2.80;;;2.50;89.60;;;;;;4845754;29;20499;-70
2021/11/25 10:18:16;;;;;;;14.05;3.00;;;2.60;89.30;;;;;;4846060;29;20050;-70
2021/11/25 10:20:50;;;;;;;12.55;2.42;;;2.70;89.20;;;;;;4845800;29;20057;-70
2021/11/25 10:23:30;;;;;;;10.77;2.35;;;2.70;88.70;;;;;;4845150;29;20080;-71
2021/11/25 10:26:09;;;;;;;12.82;2.28;;;2.80;88.60;;;;;;4846058;29;20132;-70
2021/11/25 10:28:47;;;;;;;10.35;2.10;;;2.90;88.30;;;;;;4845674;29;20041;-70
2021/11/25 10:31:22;;;;;;;13.55;2.70;;;3.00;87.70;;;;;;4845837;29;20484;-70
2021/11/25 10:34:02;;;;;;;12.20;2.65;;;3.00;87.40;;;;;;4845259;29;20058;-70
2021/11/25 10:39:27;;;;;;;10.82;2.30;;;3.20;86.90;;;;;;4845749;29;20054;-69
2021/11/25 10:41:58;;;;;;;20.08;3.55;;;3.30;87.00;;;;;;4845391;29;20057;-69
2021/11/25 10:44:38;;;;;;;15.13;3.88;;;3.40;86.80;;;;;;4828986;29;20116;-70
2021/11/25 10:47:18;;;;;;;9.98;2.53;;;3.50;86.40;;;;;;4845532;29;20046;-71
2021/11/25 10:49:58;;;;;;;14.20;2.90;;;3.60;86.30;;;;;;4845281;29;20064;-71
2021/11/25 10:52:41;;;;;;;10.23;2.95;;;3.70;85.90;;;;;;4845935;29;20421;-70
2021/11/25 10:55:15;;;;;;;16.98;2.75;;;3.80;85.60;;;;;;4845302;29;20068;-70
2021/11/25 10:58:02;;;;;;;13.48;2.83;;;3.80;85.50;;;;;;4844812;29;20393;-70
2021/11/25 11:00:36;;;;;;;12.20;2.85;;;3.90;85.40;;;;;;4828479;29;20061;-69
2021/11/25 11:03:06;;;;;;;11.45;2.92;;;4.00;85.40;;;;;;4845261;29;20368;-69
2021/11/25 11:05:57;;;;;;;13.75;2.50;;;4.20;85.20;;;;;;4844966;29;20050;-69
2021/11/25 11:08:27;;;;;;;13.90;3.85;;;4.30;84.80;;;;;;4845114;29;20053;-70
2021/11/25 11:11:00;;;;;;;11.98;4.03;;;4.40;84.00;;;;;;4829021;29;20060;-70
2021/11/25 11:21:51;;;;;;;17.30;4.18;;;4.70;81.80;;;;;;4845287;29;20445;-70
2021/11/25 11:24:25;;;;;;;10.10;3.17;;;4.80;81.50;;;;;;4787682;30;20537;-71
2021/11/25 11:26:58;;;;;;;15.70;2.88;;;5.10;81.30;;;;;;4788823;30;20051;-70
2021/11/25 11:29:31;;;;;;;14.93;3.13;;;5.30;80.20;;;;;;4788339;30;20070;-69
2021/11/25 11:32:04;;;;;;;9.50;2.25;;;5.70;80.10;;;;;;4787755;30;20055;-70
2021/11/25 11:34:33;;;;;;;11.60;2.88;;;6.10;79.40;;;;;;4788131;30;20043;-70
2021/11/25 11:37:01;;;;;;;8.68;1.98;;;6.40;79.00;;;;;;4788524;30;20059;-69
2021/11/25 11:39:32;;;;;;;12.73;2.17;;;6.80;78.60;;;;;;4788275;30;20070;-70
2021/11/25 11:42:02;;;;;;;9.57;2.40;;;7.20;77.50;;;;;;4788096;30;20059;-71
2021/11/25 11:44:30;;;;;;;10.80;2.35;;;7.50;77.00;;;;;;4788661;30;20051;-71
2021/11/25 11:47:04;;;;;;;11.25;1.90;;;7.60;75.30;;;;;;4788389;30;20063;-69
2021/11/25 11:49:39;;;;;;;10.57;2.40;;;7.80;74.80;;;;;;4788168;30;20059;-70
2021/11/25 11:52:18;;;;;;;7.90;1.85;;;7.90;74.80;;;;;;4787358;30;20164;-70
2021/11/25 11:54:59;;;;;;;7.28;2.05;;;8.00;73.30;;;;;;4792805;29;20081;-69
2021/11/25 11:57:27;;;;;;;8.18;1.90;;;8.10;71.80;;;;;;4844423;29;20054;-70
2021/11/25 11:59:56;;;;;;;8.07;2.08;;;8.30;71.80;;;;;;4843521;29;20046;-70
2021/11/25 12:02:57;;;;;;;13.00;2.22;;;8.50;72.30;;;;;;4827821;29;20515;-70
2021/11/25 12:05:40;;;;;;;10.75;2.30;;;8.80;70.30;;;;;;4813936;29;20061;-71
2021/11/25 12:08:17;;;;;;;10.50;2.10;;;9.00;69.20;;;;;;4845090;29;20124;-69
2021/11/25 12:11:00;;;;;;;8.27;2.08;;;9.10;69.10;;;;;;4828253;29;20054;-70
2021/11/25 12:13:40;;;;;;;;;;;9.10;68.20;;;;;;4844467;29;20054;-72
2021/11/25 12:16:19;;;;;;;5.88;1.73;;;9.10;67.40;;;;;;4843896;29;19924;-70
2021/11/25 12:18:53;;;;;;;9.43;1.75;;;9.10;66.40;;;;;;4844247;29;20065;-71
2021/11/25 12:21:41;;;;;;;;;;;9.00;64.60;;;;;;4844374;29;20057;-70
2021/11/25 12:24:30;;;;;;;11.63;1.80;;;8.80;64.20;;;;;;4843742;29;19931;-71
2021/11/25 12:27:23;;;;;;;6.00;1.40;;;8.60;64.30;;;;;;4843229;29;20053;-70
2021/11/25 12:29:55;;;;;;;5.20;1.05;;;8.30;64.60;;;;;;4843002;29;20046;-71
2021/11/25 12:35:11;;;;;;;6.60;1.52;;;8.20;62.80;;;;;;4843230;29;20068;-70
2021/11/25 12:37:42;;;;;;;9.98;1.70;;;8.10;62.50;;;;;;4843636;29;20045;-71
2021/11/25 12:40:21;;;;;;;5.82;1.23;;;8.20;62.70;;;;;;4843410;29;20054;-70
2021/11/25 12:42:56;;;;;;;6.00;1.27;;;8.30;62.70;;;;;;4843896;29;20054;-71
2021/11/25 12:45:29;;;;;;;9.07;1.10;;;8.40;61.40;;;;;;4843023;29;20058;-69
2021/11/25 12:48:10;;;;;;;10.68;1.20;;;8.60;61.50;;;;;;4843162;29;20054;-70
2021/11/25 12:50:57;;;;;;;4.50;1.30;;;8.80;60.40;;;;;;4843847;29;20057;-70
2021/11/25 12:53:25;;;;;;;9.88;1.02;;;8.80;60.20;;;;;;4842880;29;20377;-70
2021/11/25 12:56:04;;;;;;;5.88;1.20;;;8.80;59.60;;;;;;4827593;29;20054;-70
2021/11/25 12:59:06;;;;;;;9.90;1.52;;;8.90;58.30;;;;;;4812472;29;20054;-70
2021/11/25 13:01:37;;;;;;;4.15;1.00;;;8.90;59.00;;;;;;4840178;29;20065;-70
2021/11/25 13:04:23;;;;;;;5.35;0.85;;;9.00;59.30;;;;;;4842946;29;20061;-70
2021/11/25 13:11:45;;;;;;;6.57;1.23;;;8.90;57.90;;;;;;4849120;29;20052;-70
2021/11/25 13:14:17;;;;;;;9.40;1.55;;;8.90;57.80;;;;;;4842383;29;20061;-69
2021/11/25 13:16:53;;;;;;;8.03;1.47;;;9.00;57.70;;;;;;4826684;29;20453;-69
2021/11/25 13:19:28;;;;;;;4.93;1.23;;;9.00;57.80;;;;;;4842885;29;20042;-71
2021/11/25 13:26:52;;;;;;;10.30;1.20;;;8.80;58.20;;;;;;4841961;29;20046;-70
2021/11/25 13:29:34;;;;;;;4.35;1.02;;;8.40;58.50;;;;;;4842978;29;20063;-69
2021/11/25 13:32:11;;;;;;;6.85;1.30;;;8.30;59.10;;;;;;4841719;29;20052;-70
2021/11/25 13:34:39;;;;;;;5.85;1.40;;;8.20;59.70;;;;;;4843064;29;20054;-71
2021/11/25 13:37:10;;;;;;;8.52;1.23;;;8.10;60.30;;;;;;4843412;29;20056;-72
2021/11/25 13:39:48;;;;;;;7.18;1.15;;;8.20;59.80;;;;;;4840897;29;20062;-69
2021/11/25 13:42:17;;;;;;;8.90;1.55;;;8.00;59.70;;;;;;4842002;29;20062;-70
2021/11/25 13:44:47;;;;;;;5.43;0.98;;;7.80;59.50;;;;;;4842458;29;20057;-70
2021/11/25 13:47:22;;;;;;;6.68;1.23;;;7.60;58.70;;;;;;4826794;29;20062;-71
2021/11/25 13:49:56;;;;;;;7.03;1.52;;;7.30;59.60;;;;;;4842930;29;20058;-70
2021/11/25 13:52:31;;;;;;;7.93;1.60;;;7.20;60.00;;;;;;4826963;29;20053;-71
2021/11/25 13:54:59;;;;;;;6.75;1.63;;;7.00;60.90;;;;;;4826957;29;20061;-71
2021/11/25 13:57:28;;;;;;;6.47;1.10;;;6.90;61.40;;;;;;4826772;29;20054;-71
2021/11/25 14:00:00;;;;;;;5.43;1.30;;;6.90;61.80;;;;;;4842277;29;20049;-73
2021/11/25 14:02:39;;;;;;;9.52;1.58;;;6.80;62.00;;;;;;4826683;29;20065;-71
2021/11/25 14:05:10;;;;;;;3.20;0.85;;;6.70;62.30;;;;;;4841901;29;20061;-72
2021/11/25 14:07:38;;;;;;;5.03;1.23;;;6.60;62.60;;;;;;4841291;29;20477;-72